createdAt,value
2022-08-07T00:00:52.680Z,6.00
2022-08-07T00:03:22.238Z,5.60
2022-08-07T00:05:54.219Z,6.30
2022-08-07T00:08:22.487Z,6.50
2022-08-07T00:10:57.642Z,6.20
2022-08-07T00:13:26.938Z,6.60
2022-08-07T00:15:55.557Z,5.80
2022-08-07T00:18:25.400Z,5.40
2022-08-07T00:20:56.776Z,5.80
2022-08-07T00:23:28.308Z,6.70
2022-08-07T00:26:01.492Z,7.40
2022-08-07T00:28:34.369Z,6.90
2022-08-07T00:31:06.424Z,6.70
2022-08-07T00:33:41.816Z,6.10
2022-08-07T00:36:10.526Z,5.50
2022-08-07T00:38:40.133Z,5.80
2022-08-07T00:41:09.940Z,6.80
2022-08-07T00:44:00.315Z,6.40
2022-08-07T00:46:33.177Z,6.50
2022-08-07T00:49:02.599Z,7.10
2022-08-07T00:51:57.097Z,6.20
2022-08-07T00:54:20.055Z,5.60
2022-08-07T00:56:49.585Z,5.90
2022-08-07T00:59:20.331Z,6.00
2022-08-07T01:02:08.920Z,5.80
2022-08-07T01:04:43.267Z,7.00
2022-08-07T01:07:13.864Z,6.40
2022-08-07T01:10:06.066Z,6.10
2022-08-07T01:12:31.903Z,6.30
2022-08-07T01:15:04.401Z,6.80
2022-08-07T01:17:34.091Z,6.10
2022-08-07T01:20:09.974Z,6.40
2022-08-07T01:22:46.886Z,6.30
2022-08-07T01:25:53.997Z,6.60
2022-08-07T01:28:18.484Z,6.40
2022-08-07T01:30:51.333Z,6.60
2022-08-07T01:33:21.215Z,5.50
2022-08-07T01:35:53.710Z,6.60
2022-08-07T01:38:25.988Z,7.70
2022-08-07T01:41:02.640Z,8.70
2022-08-07T01:43:38.175Z,7.30
2022-08-07T01:46:12.331Z,6.70
2022-08-07T01:48:46.733Z,8.00
2022-08-07T01:52:01.342Z,8.10
2022-08-07T01:54:33.326Z,7.80
2022-08-07T01:57:30.910Z,7.70
2022-08-07T02:00:04.341Z,8.10
2022-08-07T02:03:18.102Z,6.60
2022-08-07T02:05:47.865Z,7.10
2022-08-07T02:08:29.232Z,7.10
2022-08-07T02:11:00.134Z,8.60
2022-08-07T02:14:00.708Z,8.30
2022-08-07T02:16:28.537Z,7.40
2022-08-07T02:19:05.749Z,7.00
2022-08-07T02:21:56.604Z,7.30
2022-08-07T02:24:29.279Z,7.30
2022-08-07T02:27:01.349Z,6.70
2022-08-07T02:29:32.738Z,6.60
2022-08-07T02:32:05.060Z,8.60
2022-08-07T02:34:34.528Z,8.50
2022-08-07T02:37:08.380Z,7.60
2022-08-07T02:40:29.493Z,6.40
2022-08-07T02:42:34.536Z,6.90
2022-08-07T02:45:59.446Z,6.20
2022-08-07T02:47:59.487Z,7.00
2022-08-07T02:50:33.259Z,7.20
2022-08-07T02:53:07.037Z,7.80
2022-08-07T02:56:03.536Z,7.50
2022-08-07T02:58:36.356Z,7.40
2022-08-07T03:01:16.088Z,6.50
2022-08-07T03:03:50.869Z,7.00
2022-08-07T03:06:34.538Z,7.00
2022-08-07T03:09:04.789Z,7.70
2022-08-07T03:11:38.947Z,9.60
2022-08-07T03:14:22.451Z,7.60
2022-08-07T03:16:52.367Z,8.00
2022-08-07T03:19:22.015Z,7.50
2022-08-07T03:21:52.188Z,8.10
2022-08-07T03:24:26.890Z,8.30
2022-08-07T03:27:01.646Z,8.00
2022-08-07T03:29:46.125Z,8.80
2022-08-07T03:32:22.761Z,8.30
2022-08-07T03:35:01.103Z,8.80
2022-08-07T03:37:53.864Z,8.80
2022-08-07T03:40:30.870Z,8.00
2022-08-07T03:43:00.965Z,6.60
2022-08-07T03:45:31.570Z,6.60
2022-08-07T03:48:10.050Z,7.50
2022-08-07T03:50:52.040Z,7.90
2022-08-07T03:54:00.761Z,9.20
2022-08-07T03:56:32.637Z,6.70
2022-08-07T03:59:08.326Z,5.60
2022-08-07T04:01:43.262Z,5.90
2022-08-07T04:04:17.369Z,6.70
2022-08-07T04:06:50.927Z,6.50
2022-08-07T04:09:23.462Z,7.10
2022-08-07T04:12:20.676Z,6.20
2022-08-07T04:14:43.912Z,5.50
2022-08-07T04:17:21.255Z,5.10
2022-08-07T04:19:55.305Z,5.20
2022-08-07T04:22:30.086Z,5.60
2022-08-07T04:25:08.851Z,5.20
2022-08-07T04:27:44.419Z,6.20
2022-08-07T04:30:21.535Z,4.60
2022-08-07T04:33:13.910Z,4.90
2022-08-07T04:35:50.420Z,4.90
2022-08-07T04:38:21.436Z,4.60
2022-08-07T04:40:51.887Z,4.90
2022-08-07T04:43:28.415Z,5.00
2022-08-07T04:46:29.560Z,5.10
2022-08-07T04:49:14.914Z,4.80
2022-08-07T04:51:59.993Z,4.80
2022-08-07T04:54:34.320Z,4.60
2022-08-07T04:58:09.596Z,4.90
2022-08-07T05:00:14.256Z,4.80
2022-08-07T05:02:54.425Z,4.60
2022-08-07T05:05:53.314Z,4.20
2022-08-07T05:09:00.195Z,4.40
2022-08-07T05:11:24.557Z,4.20
2022-08-07T05:14:54.218Z,4.30
2022-08-07T05:16:52.880Z,4.10
2022-08-07T05:19:43.985Z,4.10
2022-08-07T05:22:26.753Z,3.60
2022-08-07T05:24:59.593Z,5.00
2022-08-07T05:28:03.087Z,5.20
2022-08-07T05:30:30.280Z,4.30
2022-08-07T05:33:03.644Z,4.10
2022-08-07T05:35:41.683Z,4.20
2022-08-07T05:38:11.895Z,4.70
2022-08-07T05:40:50.306Z,5.90
2022-08-07T05:43:49.761Z,4.40
2022-08-07T05:46:09.990Z,4.20
2022-08-07T05:48:59.088Z,3.70
2022-08-07T05:51:31.513Z,3.50
2022-08-07T05:54:12.565Z,3.50
2022-08-07T05:56:51.692Z,3.30
2022-08-07T05:59:20.992Z,4.60
2022-08-07T06:01:52.027Z,4.10
2022-08-07T06:04:22.055Z,3.80
2022-08-07T06:07:03.909Z,3.80
2022-08-07T06:10:04.586Z,4.60
2022-08-07T06:12:27.799Z,6.10
2022-08-07T06:15:05.227Z,8.30
2022-08-07T06:17:38.031Z,6.40
2022-08-07T06:20:12.544Z,5.70
2022-08-07T06:23:02.161Z,5.60
2022-08-07T06:25:54.390Z,5.10
2022-08-07T06:28:27.475Z,5.20
2022-08-07T06:30:58.248Z,5.60
2022-08-07T06:33:29.696Z,5.90
2022-08-07T06:36:06.620Z,5.90
2022-08-07T06:38:58.469Z,5.70
2022-08-07T06:42:02.567Z,4.90
2022-08-07T06:44:40.068Z,5.30
2022-08-07T06:47:10.433Z,5.40
2022-08-07T06:49:50.795Z,6.10
2022-08-07T06:52:31.896Z,7.00
2022-08-07T06:55:31.421Z,6.00
2022-08-07T06:58:01.072Z,7.50
2022-08-07T07:00:34.468Z,6.00
2022-08-07T07:03:08.755Z,6.30
2022-08-07T07:06:05.394Z,6.20
2022-08-07T07:08:29.964Z,5.80
2022-08-07T07:11:13.975Z,6.10
2022-08-07T07:13:57.384Z,6.20
2022-08-07T07:16:45.427Z,5.90
2022-08-07T07:19:55.405Z,5.90
2022-08-07T07:25:13.806Z,5.30
2022-08-07T07:27:58.549Z,7.20
2022-08-07T07:30:38.436Z,4.50
2022-08-07T07:33:12.351Z,4.10
2022-08-07T07:36:04.540Z,4.70
2022-08-07T07:38:33.194Z,4.10
2022-08-07T07:41:08.766Z,4.60
2022-08-07T07:44:14.130Z,5.40
2022-08-07T07:46:37.173Z,4.10
2022-08-07T07:50:32.807Z,4.40
2022-08-07T07:52:16.022Z,4.70
2022-08-07T07:54:50.885Z,3.40
2022-08-07T07:57:43.612Z,4.70
2022-08-07T08:00:20.707Z,4.50
2022-08-07T08:03:04.768Z,5.60
2022-08-07T08:05:42.802Z,5.50
2022-08-07T08:08:34.508Z,4.00
2022-08-07T08:11:09.218Z,4.90
2022-08-07T08:13:54.007Z,4.70
2022-08-07T08:16:30.059Z,4.40
2022-08-07T08:20:17.220Z,6.60
2022-08-07T08:22:32.616Z,7.60
2022-08-07T08:25:26.792Z,5.90
2022-08-07T08:28:17.022Z,4.80
2022-08-07T08:30:57.354Z,4.80
2022-08-07T08:33:29.078Z,4.80
2022-08-07T08:36:03.106Z,4.10
2022-08-07T08:41:18.266Z,4.20
2022-08-07T08:43:59.390Z,4.70
2022-08-07T08:46:48.745Z,3.70
2022-08-07T08:49:33.636Z,4.50
2022-08-07T08:52:19.391Z,3.60
2022-08-07T08:54:55.116Z,3.20
2022-08-07T08:57:34.672Z,3.10
2022-08-07T09:00:07.987Z,3.80
2022-08-07T09:02:49.567Z,3.50
2022-08-07T09:05:38.139Z,4.70
2022-08-07T09:08:17.867Z,5.30
2022-08-07T09:11:03.623Z,3.70
2022-08-07T09:13:38.087Z,2.50
2022-08-07T09:16:22.441Z,2.60
2022-08-07T09:19:51.065Z,2.50
2022-08-07T09:24:31.093Z,2.70
2022-08-07T09:25:24.912Z,2.70
2022-08-07T09:28:02.867Z,2.80
2022-08-07T09:30:47.627Z,2.40
2022-08-07T09:33:52.588Z,2.10
2022-08-07T09:36:33.581Z,2.00
2022-08-07T09:39:27.522Z,1.90
2022-08-07T09:42:17.076Z,1.90
2022-08-07T09:47:24.493Z,2.40
2022-08-07T09:48:04.951Z,1.90
2022-08-07T09:50:51.425Z,2.10
2022-08-07T09:53:22.650Z,1.80
2022-08-07T09:56:08.860Z,2.00
2022-08-07T09:59:00.759Z,1.60
2022-08-07T10:02:00.889Z,2.40
2022-08-07T10:04:47.573Z,1.90
2022-08-07T10:07:52.970Z,2.10
2022-08-07T10:11:00.275Z,2.60
2022-08-07T10:14:00.145Z,2.10
2022-08-07T10:16:38.569Z,2.20
2022-08-07T10:19:37.797Z,2.40
2022-08-07T10:22:33.297Z,1.90
2022-08-07T10:25:22.669Z,2.40
2022-08-07T10:28:29.266Z,2.60
2022-08-07T10:31:10.970Z,2.30
2022-08-07T10:34:05.806Z,2.40
2022-08-07T10:37:12.514Z,2.10
2022-08-07T10:40:06.003Z,2.50
2022-08-07T10:42:41.325Z,2.70
2022-08-07T10:45:44.056Z,2.00
2022-08-07T10:48:35.785Z,1.90
2022-08-07T10:51:16.949Z,2.10
2022-08-07T10:54:10.685Z,3.50
2022-08-07T10:57:06.291Z,3.00
2022-08-07T10:59:47.726Z,2.40
2022-08-07T11:02:33.545Z,2.20
2022-08-07T11:05:49.136Z,2.30
2022-08-07T11:08:30.312Z,2.00
2022-08-07T11:11:05.579Z,1.90
2022-08-07T11:14:42.766Z,1.80
2022-08-07T11:16:31.059Z,1.70
2022-08-07T11:19:07.098Z,1.90
2022-08-07T11:21:49.888Z,1.90
2022-08-07T11:24:23.190Z,2.00
2022-08-07T11:26:57.054Z,1.60
2022-08-07T11:29:41.926Z,2.10
2022-08-07T11:32:25.402Z,1.80
2022-08-07T11:34:58.386Z,1.70
2022-08-07T11:37:58.298Z,1.80
2022-08-07T11:40:49.896Z,1.80
2022-08-07T11:43:29.756Z,1.80
2022-08-07T11:46:21.798Z,1.90
2022-08-07T11:49:50.855Z,1.80
2022-08-07T11:52:12.957Z,1.70
2022-08-07T11:55:18.626Z,1.90
2022-08-07T11:58:13.255Z,1.80
2022-08-07T12:01:02.595Z,1.80
2022-08-07T12:03:57.372Z,1.70
2022-08-07T12:07:00.322Z,1.80
2022-08-07T12:09:37.182Z,1.50
2022-08-07T12:12:11.625Z,1.60
2022-08-07T12:14:55.692Z,1.40
2022-08-07T12:17:59.386Z,1.70
2022-08-07T12:20:34.771Z,1.60
2022-08-07T12:24:05.478Z,1.60
2022-08-07T12:26:29.299Z,1.50
2022-08-07T12:29:07.030Z,1.40
2022-08-07T12:32:02.309Z,1.60
2022-08-07T12:34:31.409Z,2.00
2022-08-07T12:37:08.814Z,1.90
2022-08-07T12:39:51.368Z,1.50
2022-08-07T12:42:27.110Z,1.60
2022-08-07T12:44:58.333Z,2.30
2022-08-07T12:47:38.254Z,3.10
2022-08-07T12:50:39.396Z,1.90
2022-08-07T12:53:17.461Z,1.40
2022-08-07T12:56:03.303Z,1.30
2022-08-07T12:58:39.704Z,1.70
2022-08-07T13:01:22.745Z,1.50
2022-08-07T13:04:32.600Z,1.40
2022-08-07T13:08:12.479Z,1.60
2022-08-07T13:10:44.806Z,1.50
2022-08-07T13:13:48.247Z,1.40
2022-08-07T13:16:29.033Z,1.40
2022-08-07T13:19:18.237Z,1.60
2022-08-07T13:22:04.128Z,1.60
2022-08-07T13:24:53.902Z,1.50
2022-08-07T13:28:05.707Z,1.30
2022-08-07T13:30:19.714Z,1.50
2022-08-07T13:33:16.383Z,1.40
2022-08-07T13:36:05.404Z,1.40
2022-08-07T13:38:42.100Z,1.50
2022-08-07T13:41:21.039Z,1.40
2022-08-07T13:43:55.944Z,1.50
2022-08-07T13:46:33.402Z,1.50
2022-08-07T13:49:04.950Z,1.50
2022-08-07T13:52:05.188Z,1.60
2022-08-07T13:54:33.575Z,1.50
2022-08-07T13:57:08.665Z,1.40
2022-08-07T13:59:44.599Z,1.50
2022-08-07T14:02:19.086Z,1.40
2022-08-07T14:05:04.575Z,1.60
2022-08-07T14:07:59.304Z,1.40
2022-08-07T14:10:42.242Z,1.80
2022-08-07T14:13:16.207Z,1.40
2022-08-07T14:15:53.071Z,1.50
2022-08-07T14:18:31.970Z,1.40
2022-08-07T14:21:11.639Z,1.60
2022-08-07T14:24:00.591Z,1.50
2022-08-07T14:26:35.808Z,1.70
2022-08-07T14:30:05.442Z,1.50
2022-08-07T14:32:01.076Z,1.60
2022-08-07T14:34:31.426Z,1.40
2022-08-07T14:37:03.291Z,1.50
2022-08-07T14:40:17.392Z,1.60
2022-08-07T14:42:31.473Z,1.40
2022-08-07T14:45:06.431Z,1.40
2022-08-07T14:47:53.066Z,1.50
2022-08-07T14:50:29.145Z,1.20
2022-08-07T14:53:09.647Z,1.50
2022-08-07T14:58:33.512Z,1.20
2022-08-07T15:01:22.042Z,1.30
2022-08-07T15:06:47.970Z,1.50
2022-08-07T15:09:58.384Z,1.60
2022-08-07T15:12:10.657Z,1.40
2022-08-07T15:14:58.495Z,1.50
2022-08-07T15:17:33.112Z,1.70
2022-08-07T15:20:32.495Z,1.20
2022-08-07T15:23:22.187Z,1.30
2022-08-07T15:34:50.806Z,1.60
2022-08-07T15:38:04.713Z,1.70
2022-08-07T15:40:34.091Z,1.70
2022-08-07T15:43:53.343Z,1.40
2022-08-07T15:46:31.659Z,1.70
2022-08-07T15:49:12.572Z,1.80
2022-08-07T15:54:34.549Z,1.60
2022-08-07T15:57:40.070Z,2.20
2022-08-07T16:00:34.057Z,8.40
2022-08-07T16:03:21.774Z,2.20
2022-08-07T16:05:58.832Z,1.70
2022-08-07T16:08:37.789Z,1.70
2022-08-07T16:11:17.458Z,1.60
2022-08-07T16:14:04.904Z,1.80
2022-08-07T16:16:49.819Z,1.80
2022-08-07T16:19:42.541Z,1.40
2022-08-07T16:22:55.149Z,1.50
2022-08-07T16:25:54.251Z,1.70
2022-08-07T16:30:06.514Z,1.70
2022-08-07T16:31:51.394Z,1.50
2022-08-07T16:34:36.658Z,1.60
2022-08-07T16:38:06.253Z,1.70
2022-08-07T16:40:57.232Z,2.00
2022-08-07T16:44:03.909Z,1.90
2022-08-07T16:47:27.330Z,1.80
2022-08-07T16:50:35.628Z,1.60
2022-08-07T16:54:02.073Z,1.70
2022-08-07T16:56:25.817Z,1.90
2022-08-07T16:59:10.937Z,2.30
2022-08-07T17:01:56.643Z,2.40
2022-08-07T17:04:36.829Z,2.30
2022-08-07T17:07:28.414Z,2.10
2022-08-07T17:10:30.207Z,2.00
2022-08-07T17:13:41.408Z,1.80
2022-08-07T17:16:21.827Z,1.70
2022-08-07T17:19:03.455Z,2.30
2022-08-07T17:21:50.679Z,2.20
2022-08-07T17:24:55.373Z,2.00
2022-08-07T17:27:50.690Z,2.00
2022-08-07T17:30:26.490Z,1.90
2022-08-07T17:34:09.066Z,1.90
2022-08-07T17:36:13.473Z,1.50
2022-08-07T17:39:00.328Z,1.60
2022-08-07T17:42:04.954Z,2.10
2022-08-07T17:44:45.480Z,1.70
2022-08-07T17:47:38.434Z,2.00
2022-08-07T17:50:19.265Z,2.10
2022-08-07T17:52:59.580Z,1.90
2022-08-07T17:55:59.968Z,1.90
2022-08-07T17:58:46.292Z,1.70
2022-08-07T18:01:34.737Z,2.00
2022-08-07T18:04:16.786Z,2.10
2022-08-07T18:06:57.953Z,1.80
2022-08-07T18:10:05.293Z,1.80
2022-08-07T18:13:06.499Z,2.00
2022-08-07T18:15:58.382Z,1.90
2022-08-07T18:18:45.045Z,2.10
2022-08-07T18:21:53.620Z,2.20
2022-08-07T18:24:33.585Z,1.90
2022-08-07T18:27:38.739Z,2.20
2022-08-07T18:30:31.186Z,1.80
2022-08-07T18:33:36.168Z,2.10
2022-08-07T18:36:16.577Z,1.80
2022-08-07T18:40:05.128Z,2.10
2022-08-07T18:42:12.862Z,2.00
2022-08-07T18:45:44.468Z,2.10
2022-08-07T18:48:01.357Z,2.00
2022-08-07T18:50:48.024Z,2.40
2022-08-07T18:53:36.907Z,2.10
2022-08-07T18:56:19.444Z,2.00
2022-08-07T19:02:33.986Z,2.30
2022-08-07T19:05:15.879Z,2.00
2022-08-07T19:10:51.380Z,2.00
2022-08-07T19:13:26.525Z,2.10
2022-08-07T19:17:04.638Z,2.80
2022-08-07T19:19:00.048Z,2.40
2022-08-07T19:21:47.484Z,2.10
2022-08-07T19:24:36.123Z,2.60
2022-08-07T19:30:55.673Z,2.60
2022-08-07T19:31:00.065Z,2.20
2022-08-07T19:32:59.762Z,2.30
2022-08-07T19:35:33.083Z,2.50
2022-08-07T19:38:16.640Z,2.60
2022-08-07T19:40:50.714Z,2.60
2022-08-07T19:43:48.592Z,2.50
2022-08-07T19:46:19.082Z,2.30
2022-08-07T19:48:53.813Z,2.60
2022-08-07T19:51:51.830Z,2.60
2022-08-07T19:54:31.937Z,2.60
2022-08-07T19:58:00.429Z,2.70
2022-08-07T20:00:02.016Z,2.70
2022-08-07T20:02:39.016Z,2.50
2022-08-07T20:05:28.659Z,2.90
2022-08-07T20:08:01.787Z,3.00
2022-08-07T20:10:55.091Z,2.70
2022-08-07T20:13:32.156Z,2.80
2022-08-07T20:16:02.788Z,2.50
2022-08-07T20:18:34.318Z,2.50
2022-08-07T20:23:54.311Z,2.40
2022-08-07T20:26:32.707Z,2.80
2022-08-07T20:29:46.743Z,2.00
2022-08-07T20:32:11.451Z,2.70
2022-08-07T20:34:54.328Z,2.80
2022-08-07T20:37:29.308Z,2.30
2022-08-07T20:40:03.379Z,2.30
2022-08-07T20:42:37.046Z,2.40
2022-08-07T20:45:32.789Z,2.40
2022-08-07T20:47:58.454Z,2.50
2022-08-07T20:50:30.400Z,2.20
2022-08-07T20:52:59.865Z,2.10
2022-08-07T20:55:32.300Z,2.10
2022-08-07T20:58:12.123Z,2.50
2022-08-07T21:01:03.839Z,2.40
2022-08-07T21:03:35.866Z,2.10
2022-08-07T21:06:22.282Z,2.10
2022-08-07T21:09:00.720Z,2.20
2022-08-07T21:11:46.029Z,2.50
2022-08-07T21:14:33.080Z,3.30
2022-08-07T21:18:06.173Z,2.10
2022-08-07T21:20:05.232Z,1.90
2022-08-07T21:22:39.391Z,1.90
2022-08-07T21:25:20.751Z,2.10
2022-08-07T21:28:04.157Z,2.40
2022-08-07T21:30:43.200Z,2.10
2022-08-07T21:33:22.076Z,2.30
2022-08-07T21:36:06.333Z,2.00
2022-08-07T21:38:50.108Z,2.10
2022-08-07T21:41:24.620Z,2.00
2022-08-07T21:44:05.706Z,1.70
2022-08-07T21:46:40.853Z,1.70
2022-08-07T21:49:14.776Z,1.90
2022-08-07T21:52:01.995Z,2.20
2022-08-07T21:54:46.194Z,2.20
2022-08-07T21:57:39.636Z,1.70
2022-08-07T22:00:23.057Z,2.10
2022-08-07T22:03:05.552Z,2.10
2022-08-07T22:05:50.268Z,1.80
2022-08-07T22:08:33.270Z,2.10
2022-08-07T22:11:05.586Z,2.10
2022-08-07T22:13:52.074Z,1.80
2022-08-07T22:16:40.038Z,2.10
2022-08-07T22:19:23.628Z,2.20
2022-08-07T22:22:21.592Z,2.20
2022-08-07T22:25:05.241Z,2.10
2022-08-07T22:28:06.382Z,1.80
2022-08-07T22:30:36.222Z,2.00
2022-08-07T22:33:09.715Z,2.10
2022-08-07T22:35:43.506Z,1.90
2022-08-07T22:38:25.668Z,1.90
2022-08-07T22:40:59.911Z,2.40
2022-08-07T22:43:36.306Z,2.30
2022-08-07T22:47:02.441Z,2.40
2022-08-07T22:49:54.148Z,2.60
2022-08-07T22:52:43.401Z,2.50
2022-08-07T22:55:30.888Z,3.00
2022-08-07T22:58:27.871Z,2.40
2022-08-07T23:01:15.380Z,2.40
2022-08-07T23:04:00.199Z,2.50
2022-08-07T23:06:51.488Z,2.30
2022-08-07T23:10:05.526Z,2.20
2022-08-07T23:12:34.400Z,2.30
2022-08-07T23:15:12.359Z,2.20
2022-08-07T23:18:13.207Z,2.30
2022-08-07T23:21:02.896Z,2.60
2022-08-07T23:24:06.120Z,2.30
2022-08-07T23:26:54.995Z,2.50
2022-08-07T23:30:38.283Z,2.90
2022-08-07T23:34:34.420Z,2.90
2022-08-07T23:35:52.927Z,2.50
2022-08-07T23:38:36.526Z,3.10
2022-08-07T23:41:24.475Z,2.90
2022-08-07T23:44:31.668Z,3.10
2022-08-07T23:47:17.429Z,2.90
2022-08-07T23:50:23.576Z,2.40
2022-08-07T23:53:06.462Z,2.90
2022-08-07T23:55:47.139Z,2.60
2022-08-07T23:58:29.576Z,2.80
